sensor_id;sensor_type;location;lat;lon;timestamp;P1;durP1;ratioP1;P2;durP2;ratioP2
54408;SDS011;40315;48.620;9.828;2023-12-20T00:01:05;5.82;;;3.92;;
54408;SDS011;40315;48.620;9.828;2023-12-20T00:03:34;5.82;;;4.15;;
54408;SDS011;40315;48.620;9.828;2023-12-20T00:06:03;6.25;;;4.30;;
54408;SDS011;40315;48.620;9.828;2023-12-20T00:08:30;5.82;;;4.15;;
54408;SDS011;40315;48.620;9.828;2023-12-20T00:10:57;5.95;;;4.65;;
54408;SDS011;40315;48.620;9.828;2023-12-20T00:13:28;8.38;;;5.25;;
54408;SDS011;40315;48.620;9.828;2023-12-20T00:15:55;7.68;;;4.70;;
54408;SDS011;40315;48.620;9.828;2023-12-20T00:18:24;6.57;;;4.72;;
54408;SDS011;40315;48.620;9.828;2023-12-20T00:20:51;5.05;;;4.07;;
54408;SDS011;40315;48.620;9.828;2023-12-20T00:23:18;6.70;;;4.32;;
54408;SDS011;40315;48.620;9.828;2023-12-20T00:25:45;6.18;;;4.03;;
54408;SDS011;40315;48.620;9.828;2023-12-20T00:28:12;4.88;;;3.85;;
54408;SDS011;40315;48.620;9.828;2023-12-20T00:30:40;5.85;;;4.38;;
54408;SDS011;40315;48.620;9.828;2023-12-20T00:35:59;1.13;;;1.02;;
54408;SDS011;40315;48.620;9.828;2023-12-20T00:38:28;1.45;;;0.90;;
54408;SDS011;40315;48.620;9.828;2023-12-20T00:40:55;2.05;;;0.93;;
54408;SDS011;40315;48.620;9.828;2023-12-20T00:43:22;1.25;;;0.90;;
54408;SDS011;40315;48.620;9.828;2023-12-20T00:45:50;0.75;;;0.65;;
54408;SDS011;40315;48.620;9.828;2023-12-20T00:48:20;1.20;;;0.80;;
54408;SDS011;40315;48.620;9.828;2023-12-20T00:50:47;0.95;;;0.80;;
54408;SDS011;40315;48.620;9.828;2023-12-20T00:53:14;1.25;;;0.90;;
54408;SDS011;40315;48.620;9.828;2023-12-20T00:55:41;1.40;;;0.77;;
54408;SDS011;40315;48.620;9.828;2023-12-20T00:58:09;1.05;;;0.60;;
54408;SDS011;40315;48.620;9.828;2023-12-20T01:00:36;1.25;;;1.00;;
54408;SDS011;40315;48.620;9.828;2023-12-20T01:03:04;2.15;;;0.60;;
54408;SDS011;40315;48.620;9.828;2023-12-20T01:05:32;1.48;;;0.80;;
54408;SDS011;40315;48.620;9.828;2023-12-20T01:08:01;1.65;;;0.52;;
54408;SDS011;40315;48.620;9.828;2023-12-20T01:10:28;1.58;;;0.60;;
54408;SDS011;40315;48.620;9.828;2023-12-20T01:12:55;1.38;;;0.50;;
54408;SDS011;40315;48.620;9.828;2023-12-20T01:15:24;1.83;;;0.80;;
54408;SDS011;40315;48.620;9.828;2023-12-20T01:17:51;0.50;;;0.50;;
54408;SDS011;40315;48.620;9.828;2023-12-20T01:20:22;0.68;;;0.60;;
54408;SDS011;40315;48.620;9.828;2023-12-20T01:22:49;1.33;;;0.63;;
54408;SDS011;40315;48.620;9.828;2023-12-20T01:25:16;1.05;;;0.60;;
54408;SDS011;40315;48.620;9.828;2023-12-20T01:27:43;0.60;;;0.60;;
54408;SDS011;40315;48.620;9.828;2023-12-20T01:30:10;0.50;;;0.50;;
54408;SDS011;40315;48.620;9.828;2023-12-20T01:35:09;0.93;;;0.70;;
54408;SDS011;40315;48.620;9.828;2023-12-20T01:37:41;1.20;;;0.60;;
54408;SDS011;40315;48.620;9.828;2023-12-20T01:40:08;0.50;;;0.50;;
54408;SDS011;40315;48.620;9.828;2023-12-20T01:45:08;0.85;;;0.70;;
54408;SDS011;40315;48.620;9.828;2023-12-20T01:47:35;0.90;;;0.80;;
54408;SDS011;40315;48.620;9.828;2023-12-20T01:50:03;1.30;;;0.70;;
54408;SDS011;40315;48.620;9.828;2023-12-20T02:13:16;2.33;;;1.00;;
54408;SDS011;40315;48.620;9.828;2023-12-20T02:15:43;1.08;;;1.02;;
54408;SDS011;40315;48.620;9.828;2023-12-20T02:18:11;1.00;;;0.70;;
54408;SDS011;40315;48.620;9.828;2023-12-20T02:20:40;0.45;;;0.45;;
54408;SDS011;40315;48.620;9.828;2023-12-20T02:23:09;0.70;;;0.50;;
54408;SDS011;40315;48.620;9.828;2023-12-20T02:25:36;0.40;;;0.40;;
54408;SDS011;40315;48.620;9.828;2023-12-20T02:28:03;0.30;;;0.30;;
54408;SDS011;40315;48.620;9.828;2023-12-20T02:30:31;0.30;;;0.30;;
54408;SDS011;40315;48.620;9.828;2023-12-20T02:32:59;0.70;;;0.40;;
54408;SDS011;40315;48.620;9.828;2023-12-20T02:35:26;0.52;;;0.38;;
54408;SDS011;40315;48.620;9.828;2023-12-20T02:37:53;0.20;;;0.20;;
54408;SDS011;40315;48.620;9.828;2023-12-20T02:40:22;0.52;;;0.30;;
54408;SDS011;40315;48.620;9.828;2023-12-20T02:42:50;0.95;;;0.40;;
54408;SDS011;40315;48.620;9.828;2023-12-20T02:45:17;0.20;;;0.20;;
54408;SDS011;40315;48.620;9.828;2023-12-20T02:47:44;0.45;;;0.13;;
54408;SDS011;40315;48.620;9.828;2023-12-20T02:50:11;1.23;;;0.20;;
54408;SDS011;40315;48.620;9.828;2023-12-20T02:52:39;0.40;;;0.40;;
54408;SDS011;40315;48.620;9.828;2023-12-20T02:55:06;1.42;;;0.30;;
54408;SDS011;40315;48.620;9.828;2023-12-20T02:57:35;0.90;;;0.35;;
54408;SDS011;40315;48.620;9.828;2023-12-20T03:00:07;0.75;;;0.32;;
54408;SDS011;40315;48.620;9.828;2023-12-20T03:02:34;0.20;;;0.20;;
54408;SDS011;40315;48.620;9.828;2023-12-20T03:05:02;0.43;;;0.20;;
54408;SDS011;40315;48.620;9.828;2023-12-20T03:07:29;0.15;;;0.15;;
54408;SDS011;40315;48.620;9.828;2023-12-20T03:09:56;0.20;;;0.20;;
54408;SDS011;40315;48.620;9.828;2023-12-20T03:12:24;0.20;;;0.20;;
54408;SDS011;40315;48.620;9.828;2023-12-20T03:14:52;0.10;;;0.10;;
54408;SDS011;40315;48.620;9.828;2023-12-20T03:17:20;0.13;;;0.10;;
54408;SDS011;40315;48.620;9.828;2023-12-20T03:19:47;0.80;;;0.25;;
54408;SDS011;40315;48.620;9.828;2023-12-20T03:22:14;0.30;;;0.30;;
54408;SDS011;40315;48.620;9.828;2023-12-20T03:24:42;2.03;;;0.40;;
54408;SDS011;40315;48.620;9.828;2023-12-20T03:27:09;0.30;;;0.30;;
54408;SDS011;40315;48.620;9.828;2023-12-20T03:29:36;0.20;;;0.20;;
54408;SDS011;40315;48.620;9.828;2023-12-20T03:32:05;0.30;;;0.30;;
54408;SDS011;40315;48.620;9.828;2023-12-20T03:34:33;0.45;;;0.20;;
54408;SDS011;40315;48.620;9.828;2023-12-20T03:37:01;0.20;;;0.20;;
54408;SDS011;40315;48.620;9.828;2023-12-20T03:39:28;0.20;;;0.20;;
54408;SDS011;40315;48.620;9.828;2023-12-20T03:41:55;0.52;;;0.20;;
54408;SDS011;40315;48.620;9.828;2023-12-20T03:44:22;0.10;;;0.10;;
54408;SDS011;40315;48.620;9.828;2023-12-20T03:46:50;0.20;;;0.20;;
54408;SDS011;40315;48.620;9.828;2023-12-20T03:49:18;0.38;;;0.20;;
54408;SDS011;40315;48.620;9.828;2023-12-20T03:51:45;0.10;;;0.10;;
54408;SDS011;40315;48.620;9.828;2023-12-20T03:54:13;0.20;;;0.20;;
54408;SDS011;40315;48.620;9.828;2023-12-20T03:56:40;0.10;;;0.10;;
54408;SDS011;40315;48.620;9.828;2023-12-20T03:59:07;0.10;;;0.10;;
54408;SDS011;40315;48.620;9.828;2023-12-20T04:01:35;0.20;;;0.20;;
54408;SDS011;40315;48.620;9.828;2023-12-20T04:04:02;0.20;;;0.20;;
54408;SDS011;40315;48.620;9.828;2023-12-20T04:06:31;0.20;;;0.20;;
54408;SDS011;40315;48.620;9.828;2023-12-20T04:09:00;0.20;;;0.20;;
54408;SDS011;40315;48.620;9.828;2023-12-20T04:11:30;0.22;;;0.22;;
54408;SDS011;40315;48.620;9.828;2023-12-20T04:13:57;0.20;;;0.20;;
54408;SDS011;40315;48.620;9.828;2023-12-20T04:16:24;0.30;;;0.30;;
54408;SDS011;40315;48.620;9.828;2023-12-20T04:18:51;0.15;;;0.15;;
54408;SDS011;40315;48.620;9.828;2023-12-20T04:21:19;0.30;;;0.30;;
54408;SDS011;40315;48.620;9.828;2023-12-20T04:23:47;0.20;;;0.20;;
54408;SDS011;40315;48.620;9.828;2023-12-20T04:26:15;0.40;;;0.30;;
54408;SDS011;40315;48.620;9.828;2023-12-20T04:28:42;0.30;;;0.30;;
54408;SDS011;40315;48.620;9.828;2023-12-20T04:31:10;0.25;;;0.25;;
54408;SDS011;40315;48.620;9.828;2023-12-20T04:33:39;0.52;;;0.45;;
54408;SDS011;40315;48.620;9.828;2023-12-20T04:36:07;0.40;;;0.32;;
54408;SDS011;40315;48.620;9.828;2023-12-20T04:38:34;0.82;;;0.30;;
54408;SDS011;40315;48.620;9.828;2023-12-20T04:41:03;0.30;;;0.30;;
54408;SDS011;40315;48.620;9.828;2023-12-20T04:43:30;0.40;;;0.40;;
54408;SDS011;40315;48.620;9.828;2023-12-20T04:45:57;0.30;;;0.30;;
54408;SDS011;40315;48.620;9.828;2023-12-20T04:48:25;0.65;;;0.20;;
54408;SDS011;40315;48.620;9.828;2023-12-20T04:50:52;0.15;;;0.15;;
54408;SDS011;40315;48.620;9.828;2023-12-20T04:53:19;0.30;;;0.30;;
54408;SDS011;40315;48.620;9.828;2023-12-20T04:55:47;0.30;;;0.30;;
54408;SDS011;40315;48.620;9.828;2023-12-20T04:58:15;0.20;;;0.20;;
54408;SDS011;40315;48.620;9.828;2023-12-20T05:00:43;0.20;;;0.20;;
54408;SDS011;40315;48.620;9.828;2023-12-20T05:03:10;0.10;;;0.10;;
54408;SDS011;40315;48.620;9.828;2023-12-20T05:05:38;0.45;;;0.20;;
54408;SDS011;40315;48.620;9.828;2023-12-20T05:08:05;0.17;;;0.17;;
54408;SDS011;40315;48.620;9.828;2023-12-20T05:10:33;0.20;;;0.20;;
54408;SDS011;40315;48.620;9.828;2023-12-20T05:13:01;0.40;;;0.40;;
54408;SDS011;40315;48.620;9.828;2023-12-20T05:15:30;0.20;;;0.20;;
54408;SDS011;40315;48.620;9.828;2023-12-20T05:17:57;0.20;;;0.20;;
54408;SDS011;40315;48.620;9.828;2023-12-20T05:20:25;0.17;;;0.17;;
54408;SDS011;40315;48.620;9.828;2023-12-20T05:22:52;0.30;;;0.30;;
54408;SDS011;40315;48.620;9.828;2023-12-20T05:25:19;0.50;;;0.50;;
54408;SDS011;40315;48.620;9.828;2023-12-20T05:27:47;4.15;;;3.08;;
54408;SDS011;40315;48.620;9.828;2023-12-20T05:30:14;8.15;;;6.25;;
54408;SDS011;40315;48.620;9.828;2023-12-20T05:32:43;1.50;;;1.40;;
54408;SDS011;40315;48.620;9.828;2023-12-20T05:35:10;1.15;;;1.00;;
54408;SDS011;40315;48.620;9.828;2023-12-20T05:37:37;1.67;;;1.58;;
54408;SDS011;40315;48.620;9.828;2023-12-20T05:40:05;0.85;;;0.80;;
54408;SDS011;40315;48.620;9.828;2023-12-20T05:42:35;1.50;;;0.80;;
54408;SDS011;40315;48.620;9.828;2023-12-20T05:45:03;0.43;;;0.40;;
54408;SDS011;40315;48.620;9.828;2023-12-20T05:47:30;3.95;;;2.42;;
54408;SDS011;40315;48.620;9.828;2023-12-20T05:49:59;7.75;;;4.28;;
54408;SDS011;40315;48.620;9.828;2023-12-20T05:52:26;5.10;;;2.70;;
54408;SDS011;40315;48.620;9.828;2023-12-20T05:54:53;3.75;;;2.30;;
54408;SDS011;40315;48.620;9.828;2023-12-20T05:57:21;5.38;;;2.70;;
54408;SDS011;40315;48.620;9.828;2023-12-20T05:59:48;4.00;;;2.45;;
54408;SDS011;40315;48.620;9.828;2023-12-20T06:02:18;4.50;;;2.50;;
54408;SDS011;40315;48.620;9.828;2023-12-20T06:04:45;1.55;;;1.40;;
54408;SDS011;40315;48.620;9.828;2023-12-20T06:07:15;1.08;;;0.88;;
54408;SDS011;40315;48.620;9.828;2023-12-20T06:09:42;1.20;;;0.93;;
54408;SDS011;40315;48.620;9.828;2023-12-20T06:12:10;0.55;;;0.40;;
54408;SDS011;40315;48.620;9.828;2023-12-20T06:14:37;0.57;;;0.40;;
54408;SDS011;40315;48.620;9.828;2023-12-20T06:17:04;1.00;;;0.60;;
54408;SDS011;40315;48.620;9.828;2023-12-20T06:19:34;0.30;;;0.30;;
54408;SDS011;40315;48.620;9.828;2023-12-20T06:22:01;0.80;;;0.70;;
54408;SDS011;40315;48.620;9.828;2023-12-20T06:24:30;6.93;;;5.00;;
54408;SDS011;40315;48.620;9.828;2023-12-20T06:26:59;2.53;;;2.33;;
54408;SDS011;40315;48.620;9.828;2023-12-20T06:29:26;0.32;;;0.32;;
54408;SDS011;40315;48.620;9.828;2023-12-20T06:31:55;1.48;;;1.38;;
54408;SDS011;40315;48.620;9.828;2023-12-20T06:34:22;0.43;;;0.35;;
54408;SDS011;40315;48.620;9.828;2023-12-20T06:36:50;0.47;;;0.47;;
54408;SDS011;40315;48.620;9.828;2023-12-20T06:39:17;0.82;;;0.55;;
54408;SDS011;40315;48.620;9.828;2023-12-20T06:41:46;0.70;;;0.60;;
54408;SDS011;40315;48.620;9.828;2023-12-20T06:44:13;0.30;;;0.30;;
54408;SDS011;40315;48.620;9.828;2023-12-20T06:46:40;0.50;;;0.50;;
54408;SDS011;40315;48.620;9.828;2023-12-20T06:49:07;0.50;;;0.40;;
54408;SDS011;40315;48.620;9.828;2023-12-20T06:51:35;0.50;;;0.50;;
54408;SDS011;40315;48.620;9.828;2023-12-20T06:54:05;1.67;;;0.90;;
54408;SDS011;40315;48.620;9.828;2023-12-20T06:56:32;1.10;;;1.00;;
54408;SDS011;40315;48.620;9.828;2023-12-20T06:59:01;0.70;;;0.70;;
54408;SDS011;40315;48.620;9.828;2023-12-20T07:01:28;0.40;;;0.40;;
54408;SDS011;40315;48.620;9.828;2023-12-20T07:03:55;0.63;;;0.40;;
54408;SDS011;40315;48.620;9.828;2023-12-20T07:06:23;1.08;;;1.00;;
54408;SDS011;40315;48.620;9.828;2023-12-20T07:08:51;0.90;;;0.60;;
54408;SDS011;40315;48.620;9.828;2023-12-20T07:11:18;1.17;;;0.80;;
54408;SDS011;40315;48.620;9.828;2023-12-20T07:13:46;0.50;;;0.50;;
54408;SDS011;40315;48.620;9.828;2023-12-20T07:16:15;1.42;;;0.80;;
54408;SDS011;40315;48.620;9.828;2023-12-20T07:18:42;0.52;;;0.52;;
54408;SDS011;40315;48.620;9.828;2023-12-20T07:21:10;0.68;;;0.68;;
54408;SDS011;40315;48.620;9.828;2023-12-20T07:23:37;0.45;;;0.45;;
54408;SDS011;40315;48.620;9.828;2023-12-20T07:26:04;1.38;;;0.80;;
54408;SDS011;40315;48.620;9.828;2023-12-20T07:28:32;0.55;;;0.40;;
54408;SDS011;40315;48.620;9.828;2023-12-20T07:30:59;0.30;;;0.30;;
54408;SDS011;40315;48.620;9.828;2023-12-20T07:33:30;0.75;;;0.32;;
54408;SDS011;40315;48.620;9.828;2023-12-20T07:36:00;1.00;;;0.90;;
54408;SDS011;40315;48.620;9.828;2023-12-20T07:38:27;0.50;;;0.50;;
54408;SDS011;40315;48.620;9.828;2023-12-20T07:40:54;0.70;;;0.70;;
54408;SDS011;40315;48.620;9.828;2023-12-20T07:43:22;0.50;;;0.40;;
54408;SDS011;40315;48.620;9.828;2023-12-20T07:45:49;0.73;;;0.50;;
54408;SDS011;40315;48.620;9.828;2023-12-20T07:48:16;1.70;;;0.50;;
54408;SDS011;40315;48.620;9.828;2023-12-20T07:50:47;0.35;;;0.35;;
54408;SDS011;40315;48.620;9.828;2023-12-20T07:53:15;1.02;;;0.40;;
54408;SDS011;40315;48.620;9.828;2023-12-20T07:55:44;0.40;;;0.40;;
54408;SDS011;40315;48.620;9.828;2023-12-20T07:58:14;0.43;;;0.43;;
54408;SDS011;40315;48.620;9.828;2023-12-20T08:00:41;0.57;;;0.45;;
54408;SDS011;40315;48.620;9.828;2023-12-20T08:03:08;0.40;;;0.40;;
54408;SDS011;40315;48.620;9.828;2023-12-20T08:05:36;0.50;;;0.50;;
54408;SDS011;40315;48.620;9.828;2023-12-20T08:08:07;1.63;;;0.50;;
54408;SDS011;40315;48.620;9.828;2023-12-20T08:10:34;1.25;;;0.93;;
54408;SDS011;40315;48.620;9.828;2023-12-20T08:13:02;0.65;;;0.50;;
54408;SDS011;40315;48.620;9.828;2023-12-20T08:15:29;0.82;;;0.73;;
54408;SDS011;40315;48.620;9.828;2023-12-20T08:17:56;1.27;;;0.75;;
54408;SDS011;40315;48.620;9.828;2023-12-20T08:20:24;3.00;;;2.80;;
54408;SDS011;40315;48.620;9.828;2023-12-20T08:22:51;1.00;;;0.70;;
54408;SDS011;40315;48.620;9.828;2023-12-20T08:25:20;0.75;;;0.73;;
54408;SDS011;40315;48.620;9.828;2023-12-20T08:27:47;0.60;;;0.60;;
54408;SDS011;40315;48.620;9.828;2023-12-20T08:30:17;1.45;;;1.30;;
54408;SDS011;40315;48.620;9.828;2023-12-20T08:32:46;1.85;;;1.65;;
54408;SDS011;40315;48.620;9.828;2023-12-20T08:35:14;1.27;;;1.13;;
54408;SDS011;40315;48.620;9.828;2023-12-20T08:37:41;1.50;;;1.40;;
54408;SDS011;40315;48.620;9.828;2023-12-20T08:40:09;0.90;;;0.90;;
54408;SDS011;40315;48.620;9.828;2023-12-20T08:42:37;1.20;;;1.10;;
54408;SDS011;40315;48.620;9.828;2023-12-20T08:45:05;2.30;;;1.33;;
54408;SDS011;40315;48.620;9.828;2023-12-20T08:47:32;0.77;;;0.77;;
54408;SDS011;40315;48.620;9.828;2023-12-20T08:50:00;1.50;;;1.40;;
54408;SDS011;40315;48.620;9.828;2023-12-20T08:52:27;1.80;;;1.60;;
54408;SDS011;40315;48.620;9.828;2023-12-20T08:54:57;2.08;;;1.92;;
54408;SDS011;40315;48.620;9.828;2023-12-20T08:57:24;3.30;;;1.90;;
54408;SDS011;40315;48.620;9.828;2023-12-20T08:59:55;2.30;;;2.10;;
54408;SDS011;40315;48.620;9.828;2023-12-20T09:02:22;2.40;;;2.10;;
54408;SDS011;40315;48.620;9.828;2023-12-20T09:04:49;3.60;;;2.20;;
54408;SDS011;40315;48.620;9.828;2023-12-20T09:07:23;3.05;;;2.03;;
54408;SDS011;40315;48.620;9.828;2023-12-20T09:09:51;3.65;;;1.98;;
54408;SDS011;40315;48.620;9.828;2023-12-20T09:12:21;2.10;;;1.90;;
54408;SDS011;40315;48.620;9.828;2023-12-20T09:14:48;3.13;;;2.17;;
54408;SDS011;40315;48.620;9.828;2023-12-20T09:17:18;3.00;;;2.50;;
54408;SDS011;40315;48.620;9.828;2023-12-20T09:19:45;2.97;;;2.40;;
54408;SDS011;40315;48.620;9.828;2023-12-20T09:22:12;3.95;;;2.78;;
54408;SDS011;40315;48.620;9.828;2023-12-20T09:24:40;2.95;;;2.65;;
54408;SDS011;40315;48.620;9.828;2023-12-20T09:27:10;4.13;;;2.88;;
54408;SDS011;40315;48.620;9.828;2023-12-20T09:29:37;2.65;;;2.45;;
54408;SDS011;40315;48.620;9.828;2023-12-20T09:32:04;3.97;;;2.55;;
54408;SDS011;40315;48.620;9.828;2023-12-20T09:34:33;3.50;;;2.63;;
54408;SDS011;40315;48.620;9.828;2023-12-20T09:37:02;3.92;;;2.75;;
54408;SDS011;40315;48.620;9.828;2023-12-20T09:39:33;2.72;;;2.40;;
54408;SDS011;40315;48.620;9.828;2023-12-20T09:42:00;3.90;;;2.63;;
54408;SDS011;40315;48.620;9.828;2023-12-20T09:44:28;5.10;;;2.85;;
54408;SDS011;40315;48.620;9.828;2023-12-20T09:46:56;5.63;;;4.55;;
54408;SDS011;40315;48.620;9.828;2023-12-20T09:49:27;3.42;;;3.13;;
54408;SDS011;40315;48.620;9.828;2023-12-20T09:52:00;3.70;;;2.63;;
54408;SDS011;40315;48.620;9.828;2023-12-20T09:54:28;4.80;;;4.25;;
54408;SDS011;40315;48.620;9.828;2023-12-20T09:56:55;4.22;;;3.83;;
54408;SDS011;40315;48.620;9.828;2023-12-20T09:59:26;3.88;;;3.13;;
54408;SDS011;40315;48.620;9.828;2023-12-20T10:02:06;3.83;;;3.25;;
54408;SDS011;40315;48.620;9.828;2023-12-20T10:04:39;3.90;;;2.88;;
54408;SDS011;40315;48.620;9.828;2023-12-20T10:07:17;3.28;;;2.90;;
54408;SDS011;40315;48.620;9.828;2023-12-20T10:09:44;5.68;;;3.33;;
54408;SDS011;40315;48.620;9.828;2023-12-20T10:12:12;6.25;;;2.83;;
54408;SDS011;40315;48.620;9.828;2023-12-20T10:14:39;3.17;;;2.88;;
54408;SDS011;40315;48.620;9.828;2023-12-20T10:17:09;3.58;;;3.17;;
54408;SDS011;40315;48.620;9.828;2023-12-20T10:19:36;3.75;;;3.00;;
54408;SDS011;40315;48.620;9.828;2023-12-20T10:22:04;4.15;;;2.90;;
54408;SDS011;40315;48.620;9.828;2023-12-20T10:24:35;3.97;;;3.05;;
54408;SDS011;40315;48.620;9.828;2023-12-20T10:27:06;3.85;;;2.30;;
54408;SDS011;40315;48.620;9.828;2023-12-20T10:29:46;2.58;;;2.10;;
54408;SDS011;40315;48.620;9.828;2023-12-20T10:32:24;2.55;;;2.10;;
54408;SDS011;40315;48.620;9.828;2023-12-20T10:34:54;2.55;;;2.28;;
54408;SDS011;40315;48.620;9.828;2023-12-20T10:37:22;3.75;;;2.08;;
54408;SDS011;40315;48.620;9.828;2023-12-20T10:39:51;4.93;;;2.10;;
54408;SDS011;40315;48.620;9.828;2023-12-20T10:42:21;2.40;;;1.83;;
54408;SDS011;40315;48.620;9.828;2023-12-20T10:44:49;2.83;;;1.65;;
54408;SDS011;40315;48.620;9.828;2023-12-20T10:47:18;3.42;;;2.00;;
54408;SDS011;40315;48.620;9.828;2023-12-20T10:49:46;2.80;;;1.75;;
54408;SDS011;40315;48.620;9.828;2023-12-20T10:52:14;3.63;;;1.92;;
54408;SDS011;40315;48.620;9.828;2023-12-20T10:54:45;3.53;;;1.63;;
54408;SDS011;40315;48.620;9.828;2023-12-20T10:57:15;4.28;;;2.08;;
54408;SDS011;40315;48.620;9.828;2023-12-20T10:59:44;3.55;;;1.73;;
54408;SDS011;40315;48.620;9.828;2023-12-20T11:02:16;3.80;;;1.50;;
54408;SDS011;40315;48.620;9.828;2023-12-20T11:04:50;4.45;;;1.63;;
54408;SDS011;40315;48.620;9.828;2023-12-20T11:07:25;2.40;;;1.55;;
54408;SDS011;40315;48.620;9.828;2023-12-20T11:10:03;2.58;;;1.50;;
54408;SDS011;40315;48.620;9.828;2023-12-20T11:12:41;3.15;;;1.67;;
54408;SDS011;40315;48.620;9.828;2023-12-20T11:15:21;4.68;;;1.60;;
54408;SDS011;40315;48.620;9.828;2023-12-20T11:17:54;5.95;;;1.65;;
54408;SDS011;40315;48.620;9.828;2023-12-20T11:20:22;2.15;;;1.60;;
54408;SDS011;40315;48.620;9.828;2023-12-20T11:22:54;5.28;;;1.80;;
54408;SDS011;40315;48.620;9.828;2023-12-20T11:25:21;3.88;;;1.27;;
54408;SDS011;40315;48.620;9.828;2023-12-20T11:30:43;4.38;;;1.80;;
54408;SDS011;40315;48.620;9.828;2023-12-20T11:33:13;2.60;;;1.65;;
54408;SDS011;40315;48.620;9.828;2023-12-20T11:35:41;5.07;;;1.77;;
54408;SDS011;40315;48.620;9.828;2023-12-20T11:38:08;4.07;;;1.40;;
54408;SDS011;40315;48.620;9.828;2023-12-20T11:40:35;4.32;;;2.28;;
54408;SDS011;40315;48.620;9.828;2023-12-20T11:43:03;5.82;;;2.28;;
54408;SDS011;40315;48.620;9.828;2023-12-20T11:45:32;3.83;;;1.33;;
54408;SDS011;40315;48.620;9.828;2023-12-20T11:48:01;5.82;;;1.70;;
54408;SDS011;40315;48.620;9.828;2023-12-20T11:50:30;5.72;;;1.58;;
54408;SDS011;40315;48.620;9.828;2023-12-20T11:52:58;4.18;;;1.70;;
54408;SDS011;40315;48.620;9.828;2023-12-20T11:55:25;4.38;;;1.85;;
54408;SDS011;40315;48.620;9.828;2023-12-20T11:57:52;2.92;;;1.40;;
54408;SDS011;40315;48.620;9.828;2023-12-20T12:00:20;3.08;;;1.60;;
54408;SDS011;40315;48.620;9.828;2023-12-20T12:02:58;3.30;;;1.30;;
54408;SDS011;40315;48.620;9.828;2023-12-20T12:05:28;6.43;;;1.33;;
54408;SDS011;40315;48.620;9.828;2023-12-20T12:07:55;4.28;;;1.17;;
54408;SDS011;40315;48.620;9.828;2023-12-20T12:10:22;2.60;;;1.40;;
54408;SDS011;40315;48.620;9.828;2023-12-20T12:12:49;5.93;;;1.38;;
54408;SDS011;40315;48.620;9.828;2023-12-20T12:15:17;3.97;;;1.65;;
54408;SDS011;40315;48.620;9.828;2023-12-20T12:17:44;3.50;;;1.85;;
54408;SDS011;40315;48.620;9.828;2023-12-20T12:20:12;5.20;;;2.05;;
54408;SDS011;40315;48.620;9.828;2023-12-20T12:22:40;2.67;;;1.60;;
54408;SDS011;40315;48.620;9.828;2023-12-20T12:25:11;4.35;;;1.70;;
54408;SDS011;40315;48.620;9.828;2023-12-20T12:27:39;8.68;;;5.05;;
54408;SDS011;40315;48.620;9.828;2023-12-20T12:30:08;4.45;;;1.60;;
54408;SDS011;40315;48.620;9.828;2023-12-20T12:32:38;4.82;;;2.25;;
54408;SDS011;40315;48.620;9.828;2023-12-20T12:35:06;2.70;;;1.73;;
54408;SDS011;40315;48.620;9.828;2023-12-20T12:37:41;4.72;;;1.40;;
54408;SDS011;40315;48.620;9.828;2023-12-20T12:40:09;3.92;;;1.40;;
54408;SDS011;40315;48.620;9.828;2023-12-20T12:42:39;4.05;;;1.63;;
54408;SDS011;40315;48.620;9.828;2023-12-20T12:45:07;4.05;;;1.40;;
54408;SDS011;40315;48.620;9.828;2023-12-20T12:47:35;3.30;;;1.67;;
54408;SDS011;40315;48.620;9.828;2023-12-20T12:50:02;6.53;;;4.25;;
54408;SDS011;40315;48.620;9.828;2023-12-20T12:52:30;10.68;;;4.95;;
54408;SDS011;40315;48.620;9.828;2023-12-20T12:54:58;4.75;;;2.30;;
54408;SDS011;40315;48.620;9.828;2023-12-20T12:57:26;5.63;;;2.05;;
54408;SDS011;40315;48.620;9.828;2023-12-20T12:59:53;5.13;;;2.33;;
54408;SDS011;40315;48.620;9.828;2023-12-20T13:02:20;8.48;;;3.30;;
54408;SDS011;40315;48.620;9.828;2023-12-20T13:04:47;4.30;;;2.40;;
54408;SDS011;40315;48.620;9.828;2023-12-20T13:07:17;3.25;;;2.08;;
54408;SDS011;40315;48.620;9.828;2023-12-20T13:09:44;3.58;;;1.92;;
54408;SDS011;40315;48.620;9.828;2023-12-20T13:12:13;10.73;;;7.28;;
54408;SDS011;40315;48.620;9.828;2023-12-20T13:14:41;3.47;;;1.83;;
54408;SDS011;40315;48.620;9.828;2023-12-20T13:17:08;4.40;;;1.90;;
54408;SDS011;40315;48.620;9.828;2023-12-20T13:19:35;4.22;;;1.80;;
54408;SDS011;40315;48.620;9.828;2023-12-20T13:22:03;4.82;;;1.52;;
54408;SDS011;40315;48.620;9.828;2023-12-20T13:24:30;5.60;;;2.33;;
54408;SDS011;40315;48.620;9.828;2023-12-20T13:26:57;5.30;;;1.80;;
54408;SDS011;40315;48.620;9.828;2023-12-20T13:29:26;4.78;;;1.73;;
54408;SDS011;40315;48.620;9.828;2023-12-20T13:31:56;4.93;;;1.75;;
54408;SDS011;40315;48.620;9.828;2023-12-20T13:34:23;3.70;;;1.60;;
54408;SDS011;40315;48.620;9.828;2023-12-20T13:36:51;3.22;;;1.98;;
54408;SDS011;40315;48.620;9.828;2023-12-20T13:39:18;4.00;;;1.58;;
54408;SDS011;40315;48.620;9.828;2023-12-20T13:41:46;2.55;;;1.48;;
54408;SDS011;40315;48.620;9.828;2023-12-20T13:44:13;4.53;;;2.38;;
54408;SDS011;40315;48.620;9.828;2023-12-20T13:46:42;8.02;;;2.33;;
54408;SDS011;40315;48.620;9.828;2023-12-20T13:49:10;4.18;;;2.05;;
54408;SDS011;40315;48.620;9.828;2023-12-20T13:51:39;3.25;;;1.73;;
54408;SDS011;40315;48.620;9.828;2023-12-20T13:54:06;7.78;;;2.42;;
54408;SDS011;40315;48.620;9.828;2023-12-20T13:56:34;4.82;;;1.45;;
54408;SDS011;40315;48.620;9.828;2023-12-20T13:59:01;8.10;;;3.97;;
54408;SDS011;40315;48.620;9.828;2023-12-20T14:01:28;5.15;;;1.70;;
54408;SDS011;40315;48.620;9.828;2023-12-20T14:03:57;4.53;;;1.25;;
54408;SDS011;40315;48.620;9.828;2023-12-20T14:06:26;7.13;;;1.50;;
54408;SDS011;40315;48.620;9.828;2023-12-20T14:08:55;4.95;;;1.40;;
54408;SDS011;40315;48.620;9.828;2023-12-20T14:11:25;6.22;;;1.55;;
54408;SDS011;40315;48.620;9.828;2023-12-20T14:13:53;3.88;;;1.40;;
54408;SDS011;40315;48.620;9.828;2023-12-20T14:16:23;4.10;;;0.90;;
54408;SDS011;40315;48.620;9.828;2023-12-20T14:18:50;1.98;;;0.95;;
54408;SDS011;40315;48.620;9.828;2023-12-20T14:21:19;3.40;;;1.30;;
54408;SDS011;40315;48.620;9.828;2023-12-20T14:23:47;3.08;;;1.40;;
54408;SDS011;40315;48.620;9.828;2023-12-20T14:26:14;4.32;;;1.50;;
54408;SDS011;40315;48.620;9.828;2023-12-20T14:28:41;3.10;;;1.15;;
54408;SDS011;40315;48.620;9.828;2023-12-20T14:31:09;2.65;;;1.13;;
54408;SDS011;40315;48.620;9.828;2023-12-20T14:33:37;4.93;;;2.45;;
54408;SDS011;40315;48.620;9.828;2023-12-20T14:36:07;5.45;;;1.58;;
54408;SDS011;40315;48.620;9.828;2023-12-20T14:38:36;3.58;;;1.40;;
54408;SDS011;40315;48.620;9.828;2023-12-20T14:41:04;6.63;;;1.75;;
54408;SDS011;40315;48.620;9.828;2023-12-20T14:43:34;2.97;;;1.42;;
54408;SDS011;40315;48.620;9.828;2023-12-20T14:46:02;3.25;;;0.98;;
54408;SDS011;40315;48.620;9.828;2023-12-20T14:48:30;2.30;;;0.85;;
54408;SDS011;40315;48.620;9.828;2023-12-20T14:50:58;1.92;;;0.80;;
54408;SDS011;40315;48.620;9.828;2023-12-20T14:53:26;3.33;;;1.20;;
54408;SDS011;40315;48.620;9.828;2023-12-20T14:55:55;7.72;;;2.70;;
54408;SDS011;40315;48.620;9.828;2023-12-20T14:58:23;3.03;;;1.13;;
54408;SDS011;40315;48.620;9.828;2023-12-20T15:00:50;3.60;;;1.30;;
54408;SDS011;40315;48.620;9.828;2023-12-20T15:03:17;4.22;;;1.27;;
54408;SDS011;40315;48.620;9.828;2023-12-20T15:05:44;2.58;;;0.95;;
54408;SDS011;40315;48.620;9.828;2023-12-20T15:08:13;6.63;;;1.60;;
54408;SDS011;40315;48.620;9.828;2023-12-20T15:10:41;3.20;;;1.40;;
54408;SDS011;40315;48.620;9.828;2023-12-20T15:13:10;3.22;;;1.30;;
54408;SDS011;40315;48.620;9.828;2023-12-20T15:15:41;2.60;;;0.85;;
54408;SDS011;40315;48.620;9.828;2023-12-20T15:18:09;3.45;;;1.40;;
54408;SDS011;40315;48.620;9.828;2023-12-20T15:20:38;3.08;;;1.20;;
54408;SDS011;40315;48.620;9.828;2023-12-20T15:23:06;5.07;;;1.50;;
54408;SDS011;40315;48.620;9.828;2023-12-20T15:25:34;2.58;;;1.10;;